sensor_id;sensor_type;location;lat;lon;timestamp;temperature;humidity
24470;DHT22;12635;50.852;5.676;2023-02-15T00:00:53;1.80;99.90
24470;DHT22;12635;50.852;5.676;2023-02-15T00:03:20;1.80;99.90
24470;DHT22;12635;50.852;5.676;2023-02-15T00:05:49;2.00;99.90
24470;DHT22;12635;50.852;5.676;2023-02-15T00:08:16;2.30;99.90
24470;DHT22;12635;50.852;5.676;2023-02-15T00:10:42;2.20;99.90
24470;DHT22;12635;50.852;5.676;2023-02-15T00:13:09;2.20;99.90
24470;DHT22;12635;50.852;5.676;2023-02-15T00:15:36;2.20;99.90
24470;DHT22;12635;50.852;5.676;2023-02-15T00:18:03;2.10;99.90
24470;DHT22;12635;50.852;5.676;2023-02-15T00:20:30;2.00;99.90
24470;DHT22;12635;50.852;5.676;2023-02-15T00:22:58;1.90;99.90
24470;DHT22;12635;50.852;5.676;2023-02-15T00:25:25;1.80;99.90
24470;DHT22;12635;50.852;5.676;2023-02-15T00:27:52;2.10;99.90
24470;DHT22;12635;50.852;5.676;2023-02-15T00:30:19;2.10;99.90
24470;DHT22;12635;50.852;5.676;2023-02-15T00:32:47;1.90;99.90
24470;DHT22;12635;50.852;5.676;2023-02-15T00:35:14;2.00;99.90
24470;DHT22;12635;50.852;5.676;2023-02-15T00:37:40;2.10;99.90
24470;DHT22;12635;50.852;5.676;2023-02-15T00:40:09;2.20;99.90
24470;DHT22;12635;50.852;5.676;2023-02-15T00:42:36;2.20;99.90
24470;DHT22;12635;50.852;5.676;2023-02-15T00:45:03;1.90;99.90
24470;DHT22;12635;50.852;5.676;2023-02-15T00:47:30;1.90;99.90
24470;DHT22;12635;50.852;5.676;2023-02-15T00:49:57;2.00;99.90
24470;DHT22;12635;50.852;5.676;2023-02-15T00:52:24;2.10;99.90
24470;DHT22;12635;50.852;5.676;2023-02-15T00:54:51;2.10;99.90
24470;DHT22;12635;50.852;5.676;2023-02-15T00:57:19;1.90;99.90
24470;DHT22;12635;50.852;5.676;2023-02-15T00:59:46;1.80;99.90
24470;DHT22;12635;50.852;5.676;2023-02-15T01:02:13;1.80;99.90
24470;DHT22;12635;50.852;5.676;2023-02-15T01:04:40;1.80;99.90
24470;DHT22;12635;50.852;5.676;2023-02-15T01:07:07;1.60;99.90
24470;DHT22;12635;50.852;5.676;2023-02-15T01:09:33;1.60;99.90
24470;DHT22;12635;50.852;5.676;2023-02-15T01:12:00;1.90;99.90
24470;DHT22;12635;50.852;5.676;2023-02-15T01:14:29;1.90;99.90
24470;DHT22;12635;50.852;5.676;2023-02-15T01:16:55;1.80;99.90
24470;DHT22;12635;50.852;5.676;2023-02-15T01:19:22;1.70;99.90
24470;DHT22;12635;50.852;5.676;2023-02-15T01:21:49;1.50;99.90
24470;DHT22;12635;50.852;5.676;2023-02-15T01:24:16;1.50;99.90
24470;DHT22;12635;50.852;5.676;2023-02-15T01:26:43;1.60;99.90
24470;DHT22;12635;50.852;5.676;2023-02-15T01:29:10;1.70;99.90
24470;DHT22;12635;50.852;5.676;2023-02-15T01:31:38;1.50;99.90
24470;DHT22;12635;50.852;5.676;2023-02-15T01:34:05;1.50;99.90
24470;DHT22;12635;50.852;5.676;2023-02-15T01:36:33;1.60;99.90
24470;DHT22;12635;50.852;5.676;2023-02-15T01:39:00;1.80;99.90
24470;DHT22;12635;50.852;5.676;2023-02-15T01:41:27;1.90;99.90
24470;DHT22;12635;50.852;5.676;2023-02-15T01:43:55;1.80;99.90
24470;DHT22;12635;50.852;5.676;2023-02-15T01:46:24;1.60;99.90
24470;DHT22;12635;50.852;5.676;2023-02-15T01:48:55;1.50;99.90
24470;DHT22;12635;50.852;5.676;2023-02-15T01:51:23;1.40;99.90
24470;DHT22;12635;50.852;5.676;2023-02-15T01:53:53;1.40;99.90
24470;DHT22;12635;50.852;5.676;2023-02-15T01:56:22;1.60;99.90
24470;DHT22;12635;50.852;5.676;2023-02-15T01:58:50;1.60;99.90
24470;DHT22;12635;50.852;5.676;2023-02-15T02:01:17;1.80;99.90
24470;DHT22;12635;50.852;5.676;2023-02-15T02:03:48;1.70;99.90
24470;DHT22;12635;50.852;5.676;2023-02-15T02:06:18;1.40;99.90
24470;DHT22;12635;50.852;5.676;2023-02-15T02:08:46;2.00;99.90
24470;DHT22;12635;50.852;5.676;2023-02-15T02:11:14;2.40;99.90
24470;DHT22;12635;50.852;5.676;2023-02-15T02:13:41;1.90;99.90
24470;DHT22;12635;50.852;5.676;2023-02-15T02:16:09;1.90;99.90
24470;DHT22;12635;50.852;5.676;2023-02-15T02:18:41;2.00;99.90
24470;DHT22;12635;50.852;5.676;2023-02-15T02:21:23;1.80;99.90
24470;DHT22;12635;50.852;5.676;2023-02-15T02:24:01;1.90;99.90
24470;DHT22;12635;50.852;5.676;2023-02-15T02:32:18;1.70;99.90
24470;DHT22;12635;50.852;5.676;2023-02-15T02:34:49;1.40;99.90
24470;DHT22;12635;50.852;5.676;2023-02-15T02:37:19;1.70;99.90
24470;DHT22;12635;50.852;5.676;2023-02-15T02:39:49;1.70;99.90
24470;DHT22;12635;50.852;5.676;2023-02-15T02:42:18;2.20;99.90
24470;DHT22;12635;50.852;5.676;2023-02-15T02:44:49;2.00;99.90
24470;DHT22;12635;50.852;5.676;2023-02-15T02:47:18;2.10;99.90
24470;DHT22;12635;50.852;5.676;2023-02-15T02:49:46;1.80;99.90
24470;DHT22;12635;50.852;5.676;2023-02-15T02:52:36;1.60;99.90
24470;DHT22;12635;50.852;5.676;2023-02-15T02:55:03;1.50;99.90
24470;DHT22;12635;50.852;5.676;2023-02-15T02:57:32;1.30;99.90
24470;DHT22;12635;50.852;5.676;2023-02-15T02:59:59;1.60;99.90
24470;DHT22;12635;50.852;5.676;2023-02-15T03:02:29;1.30;99.90
24470;DHT22;12635;50.852;5.676;2023-02-15T03:04:57;1.60;99.90
24470;DHT22;12635;50.852;5.676;2023-02-15T03:07:29;1.70;99.90
24470;DHT22;12635;50.852;5.676;2023-02-15T03:09:58;1.70;99.90
24470;DHT22;12635;50.852;5.676;2023-02-15T03:12:28;2.10;99.90
24470;DHT22;12635;50.852;5.676;2023-02-15T03:14:56;2.20;99.90
24470;DHT22;12635;50.852;5.676;2023-02-15T03:17:25;1.80;99.90
24470;DHT22;12635;50.852;5.676;2023-02-15T03:19:53;1.60;99.90
24470;DHT22;12635;50.852;5.676;2023-02-15T03:22:23;1.40;99.90
24470;DHT22;12635;50.852;5.676;2023-02-15T03:24:53;1.50;99.90
24470;DHT22;12635;50.852;5.676;2023-02-15T03:27:24;1.60;99.90
24470;DHT22;12635;50.852;5.676;2023-02-15T03:29:52;1.50;99.90
24470;DHT22;12635;50.852;5.676;2023-02-15T03:32:20;1.10;99.90
24470;DHT22;12635;50.852;5.676;2023-02-15T03:34:47;1.10;99.90
24470;DHT22;12635;50.852;5.676;2023-02-15T03:37:15;1.40;99.90
24470;DHT22;12635;50.852;5.676;2023-02-15T03:39:46;1.50;99.90
24470;DHT22;12635;50.852;5.676;2023-02-15T03:42:16;1.70;99.90
24470;DHT22;12635;50.852;5.676;2023-02-15T03:44:49;1.70;99.90
24470;DHT22;12635;50.852;5.676;2023-02-15T03:47:19;2.00;99.90
24470;DHT22;12635;50.852;5.676;2023-02-15T03:49:48;2.20;99.90
24470;DHT22;12635;50.852;5.676;2023-02-15T03:52:17;1.90;99.90
24470;DHT22;12635;50.852;5.676;2023-02-15T03:54:43;1.90;99.90
24470;DHT22;12635;50.852;5.676;2023-02-15T03:57:13;1.90;99.90
24470;DHT22;12635;50.852;5.676;2023-02-15T03:59:59;2.00;99.90
24470;DHT22;12635;50.852;5.676;2023-02-15T04:02:46;1.80;99.90
24470;DHT22;12635;50.852;5.676;2023-02-15T04:05:15;1.90;99.90
24470;DHT22;12635;50.852;5.676;2023-02-15T04:07:42;1.80;99.90
24470;DHT22;12635;50.852;5.676;2023-02-15T04:10:09;1.50;99.90
24470;DHT22;12635;50.852;5.676;2023-02-15T04:12:53;1.60;99.90
24470;DHT22;12635;50.852;5.676;2023-02-15T04:15:22;1.60;99.90
24470;DHT22;12635;50.852;5.676;2023-02-15T04:18:06;1.40;99.90
24470;DHT22;12635;50.852;5.676;2023-02-15T04:20:33;1.70;99.90
24470;DHT22;12635;50.852;5.676;2023-02-15T04:23:17;1.20;99.90
24470;DHT22;12635;50.852;5.676;2023-02-15T04:26:02;1.50;99.90
24470;DHT22;12635;50.852;5.676;2023-02-15T04:28:30;1.30;99.90
24470;DHT22;12635;50.852;5.676;2023-02-15T04:30:58;1.50;99.90
24470;DHT22;12635;50.852;5.676;2023-02-15T04:33:25;1.60;99.90
24470;DHT22;12635;50.852;5.676;2023-02-15T04:35:52;1.70;99.90
24470;DHT22;12635;50.852;5.676;2023-02-15T04:38:19;1.50;99.90
24470;DHT22;12635;50.852;5.676;2023-02-15T04:40:49;1.90;99.90
24470;DHT22;12635;50.852;5.676;2023-02-15T04:43:16;1.90;99.90
24470;DHT22;12635;50.852;5.676;2023-02-15T04:45:47;2.00;99.90
24470;DHT22;12635;50.852;5.676;2023-02-15T04:48:15;1.90;99.90
24470;DHT22;12635;50.852;5.676;2023-02-15T04:50:42;1.80;99.90
24470;DHT22;12635;50.852;5.676;2023-02-15T04:53:10;1.40;99.90
24470;DHT22;12635;50.852;5.676;2023-02-15T04:55:37;1.40;99.90
24470;DHT22;12635;50.852;5.676;2023-02-15T04:58:04;1.30;99.90
24470;DHT22;12635;50.852;5.676;2023-02-15T05:00:30;1.00;99.90
24470;DHT22;12635;50.852;5.676;2023-02-15T05:02:57;1.30;99.90
24470;DHT22;12635;50.852;5.676;2023-02-15T05:05:25;1.20;99.90
24470;DHT22;12635;50.852;5.676;2023-02-15T05:07:52;1.40;99.90
24470;DHT22;12635;50.852;5.676;2023-02-15T05:10:19;1.40;99.90
24470;DHT22;12635;50.852;5.676;2023-02-15T05:12:46;1.40;99.90
24470;DHT22;12635;50.852;5.676;2023-02-15T05:15:13;1.40;99.90
24470;DHT22;12635;50.852;5.676;2023-02-15T05:17:40;1.20;99.90
24470;DHT22;12635;50.852;5.676;2023-02-15T05:20:07;1.00;99.90
24470;DHT22;12635;50.852;5.676;2023-02-15T05:22:36;1.10;99.90
24470;DHT22;12635;50.852;5.676;2023-02-15T05:25:02;1.20;99.90
24470;DHT22;12635;50.852;5.676;2023-02-15T05:27:47;1.10;99.90
24470;DHT22;12635;50.852;5.676;2023-02-15T05:30:31;1.30;99.90
24470;DHT22;12635;50.852;5.676;2023-02-15T05:32:58;1.20;99.90
24470;DHT22;12635;50.852;5.676;2023-02-15T05:35:25;1.20;99.90
24470;DHT22;12635;50.852;5.676;2023-02-15T05:37:53;1.10;99.90
24470;DHT22;12635;50.852;5.676;2023-02-15T05:40:20;1.10;99.90
24470;DHT22;12635;50.852;5.676;2023-02-15T05:42:47;1.10;99.90
24470;DHT22;12635;50.852;5.676;2023-02-15T05:45:14;1.30;99.90
24470;DHT22;12635;50.852;5.676;2023-02-15T05:47:41;1.20;99.90
24470;DHT22;12635;50.852;5.676;2023-02-15T05:50:08;1.20;99.90
24470;DHT22;12635;50.852;5.676;2023-02-15T05:52:36;1.10;99.90
24470;DHT22;12635;50.852;5.676;2023-02-15T05:55:05;1.30;99.90
24470;DHT22;12635;50.852;5.676;2023-02-15T05:57:34;1.50;99.90
24470;DHT22;12635;50.852;5.676;2023-02-15T06:00:01;1.40;99.90
24470;DHT22;12635;50.852;5.676;2023-02-15T06:02:29;1.10;99.90
24470;DHT22;12635;50.852;5.676;2023-02-15T06:04:56;1.10;99.90
24470;DHT22;12635;50.852;5.676;2023-02-15T06:07:23;1.20;99.90
24470;DHT22;12635;50.852;5.676;2023-02-15T06:09:50;1.30;99.90
24470;DHT22;12635;50.852;5.676;2023-02-15T06:12:18;1.30;99.90
24470;DHT22;12635;50.852;5.676;2023-02-15T06:14:45;1.20;99.90
24470;DHT22;12635;50.852;5.676;2023-02-15T06:17:12;1.10;99.90
24470;DHT22;12635;50.852;5.676;2023-02-15T06:19:39;1.10;99.90
24470;DHT22;12635;50.852;5.676;2023-02-15T06:22:06;1.10;99.90
24470;DHT22;12635;50.852;5.676;2023-02-15T06:24:33;1.20;99.90
24470;DHT22;12635;50.852;5.676;2023-02-15T06:27:00;1.00;99.90
24470;DHT22;12635;50.852;5.676;2023-02-15T06:29:28;1.00;99.90
24470;DHT22;12635;50.852;5.676;2023-02-15T06:31:55;1.00;99.90
24470;DHT22;12635;50.852;5.676;2023-02-15T06:34:22;1.00;99.90
24470;DHT22;12635;50.852;5.676;2023-02-15T06:36:48;1.00;99.90
24470;DHT22;12635;50.852;5.676;2023-02-15T06:39:15;1.20;99.90
24470;DHT22;12635;50.852;5.676;2023-02-15T06:41:42;1.30;99.90
24470;DHT22;12635;50.852;5.676;2023-02-15T06:44:09;1.30;99.90
24470;DHT22;12635;50.852;5.676;2023-02-15T06:46:37;1.40;99.90
24470;DHT22;12635;50.852;5.676;2023-02-15T06:49:04;1.40;99.90
24470;DHT22;12635;50.852;5.676;2023-02-15T06:51:31;1.40;99.90
24470;DHT22;12635;50.852;5.676;2023-02-15T06:53:59;1.30;99.90
24470;DHT22;12635;50.852;5.676;2023-02-15T06:56:26;1.30;99.90
24470;DHT22;12635;50.852;5.676;2023-02-15T06:58:53;1.10;99.90
24470;DHT22;12635;50.852;5.676;2023-02-15T07:01:20;1.30;99.90
24470;DHT22;12635;50.852;5.676;2023-02-15T07:03:48;1.30;99.90
24470;DHT22;12635;50.852;5.676;2023-02-15T07:06:15;1.40;99.90
24470;DHT22;12635;50.852;5.676;2023-02-15T07:08:42;1.70;99.90
24470;DHT22;12635;50.852;5.676;2023-02-15T07:11:09;2.10;99.90
24470;DHT22;12635;50.852;5.676;2023-02-15T07:14:01;2.40;99.90
24470;DHT22;12635;50.852;5.676;2023-02-15T07:16:28;2.80;99.90
24470;DHT22;12635;50.852;5.676;2023-02-15T07:18:56;2.80;99.90
24470;DHT22;12635;50.852;5.676;2023-02-15T07:21:23;2.90;99.90
24470;DHT22;12635;50.852;5.676;2023-02-15T07:23:50;3.70;99.90
24470;DHT22;12635;50.852;5.676;2023-02-15T07:26:17;4.20;99.90
24470;DHT22;12635;50.852;5.676;2023-02-15T07:28:44;4.20;99.90
24470;DHT22;12635;50.852;5.676;2023-02-15T07:31:11;4.90;99.90
24470;DHT22;12635;50.852;5.676;2023-02-15T07:33:38;4.80;99.90
24470;DHT22;12635;50.852;5.676;2023-02-15T07:36:07;5.40;99.90
24470;DHT22;12635;50.852;5.676;2023-02-15T07:38:36;5.60;99.90
24470;DHT22;12635;50.852;5.676;2023-02-15T07:41:03;5.70;99.90
24470;DHT22;12635;50.852;5.676;2023-02-15T07:43:32;6.10;99.90
24470;DHT22;12635;50.852;5.676;2023-02-15T07:45:59;6.60;99.90
24470;DHT22;12635;50.852;5.676;2023-02-15T07:48:26;6.60;99.90
24470;DHT22;12635;50.852;5.676;2023-02-15T07:50:53;6.80;99.90
24470;DHT22;12635;50.852;5.676;2023-02-15T07:53:22;7.00;99.90
24470;DHT22;12635;50.852;5.676;2023-02-15T07:55:49;7.20;99.90
24470;DHT22;12635;50.852;5.676;2023-02-15T07:58:15;7.40;99.90
24470;DHT22;12635;50.852;5.676;2023-02-15T08:00:42;7.70;99.90
24470;DHT22;12635;50.852;5.676;2023-02-15T08:03:27;7.80;99.90
24470;DHT22;12635;50.852;5.676;2023-02-15T08:05:55;8.50;99.90
24470;DHT22;12635;50.852;5.676;2023-02-15T08:08:24;9.10;99.90
24470;DHT22;12635;50.852;5.676;2023-02-15T08:10:57;9.40;99.90
24470;DHT22;12635;50.852;5.676;2023-02-15T08:13:42;9.70;99.90
24470;DHT22;12635;50.852;5.676;2023-02-15T08:16:19;9.70;99.90
24470;DHT22;12635;50.852;5.676;2023-02-15T08:18:46;9.80;99.90
24470;DHT22;12635;50.852;5.676;2023-02-15T08:21:13;9.60;99.90
24470;DHT22;12635;50.852;5.676;2023-02-15T08:23:41;9.30;99.90
24470;DHT22;12635;50.852;5.676;2023-02-15T08:26:08;8.80;99.90
24470;DHT22;12635;50.852;5.676;2023-02-15T08:28:35;8.20;99.90
24470;DHT22;12635;50.852;5.676;2023-02-15T08:31:05;7.60;99.90
24470;DHT22;12635;50.852;5.676;2023-02-15T08:33:32;7.70;99.90
24470;DHT22;12635;50.852;5.676;2023-02-15T08:36:02;8.00;99.90
24470;DHT22;12635;50.852;5.676;2023-02-15T08:38:29;8.20;99.90
24470;DHT22;12635;50.852;5.676;2023-02-15T08:40:57;8.40;99.90
24470;DHT22;12635;50.852;5.676;2023-02-15T08:43:24;8.80;99.90
24470;DHT22;12635;50.852;5.676;2023-02-15T08:45:51;9.00;99.90
24470;DHT22;12635;50.852;5.676;2023-02-15T08:48:18;8.90;99.90
24470;DHT22;12635;50.852;5.676;2023-02-15T08:50:44;8.80;99.90
24470;DHT22;12635;50.852;5.676;2023-02-15T08:53:11;9.00;99.90
24470;DHT22;12635;50.852;5.676;2023-02-15T08:55:39;9.20;99.90
24470;DHT22;12635;50.852;5.676;2023-02-15T08:58:07;9.20;99.90
24470;DHT22;12635;50.852;5.676;2023-02-15T09:00:34;9.00;99.90
24470;DHT22;12635;50.852;5.676;2023-02-15T09:03:01;9.20;99.90
24470;DHT22;12635;50.852;5.676;2023-02-15T09:05:28;9.10;99.90
24470;DHT22;12635;50.852;5.676;2023-02-15T09:07:55;9.40;99.90
24470;DHT22;12635;50.852;5.676;2023-02-15T09:10:22;9.30;99.90
24470;DHT22;12635;50.852;5.676;2023-02-15T09:12:49;9.30;99.90
24470;DHT22;12635;50.852;5.676;2023-02-15T09:15:18;9.60;99.90
24470;DHT22;12635;50.852;5.676;2023-02-15T09:17:45;10.20;99.90
24470;DHT22;12635;50.852;5.676;2023-02-15T09:20:12;10.40;99.90
24470;DHT22;12635;50.852;5.676;2023-02-15T09:22:39;11.10;99.90
24470;DHT22;12635;50.852;5.676;2023-02-15T09:25:05;12.10;99.90
24470;DHT22;12635;50.852;5.676;2023-02-15T09:27:32;13.10;99.90
24470;DHT22;12635;50.852;5.676;2023-02-15T09:29:59;13.40;99.90
24470;DHT22;12635;50.852;5.676;2023-02-15T09:32:28;12.70;99.90
24470;DHT22;12635;50.852;5.676;2023-02-15T09:34:55;13.00;99.90
24470;DHT22;12635;50.852;5.676;2023-02-15T09:37:21;13.70;99.90
24470;DHT22;12635;50.852;5.676;2023-02-15T09:39:48;13.40;99.90
24470;DHT22;12635;50.852;5.676;2023-02-15T09:42:28;13.20;99.90
24470;DHT22;12635;50.852;5.676;2023-02-15T09:45:04;13.10;99.90
24470;DHT22;12635;50.852;5.676;2023-02-15T09:47:44;13.00;99.90
24470;DHT22;12635;50.852;5.676;2023-02-15T09:50:15;13.30;99.90
24470;DHT22;12635;50.852;5.676;2023-02-15T09:52:48;13.10;99.90
24470;DHT22;12635;50.852;5.676;2023-02-15T09:55:21;13.20;99.90
24470;DHT22;12635;50.852;5.676;2023-02-15T09:57:53;13.30;99.90
24470;DHT22;12635;50.852;5.676;2023-02-15T10:00:24;13.70;99.90
24470;DHT22;12635;50.852;5.676;2023-02-15T10:03:01;13.80;99.90
24470;DHT22;12635;50.852;5.676;2023-02-15T10:05:33;13.80;99.90
24470;DHT22;12635;50.852;5.676;2023-02-15T10:08:12;13.70;99.90
24470;DHT22;12635;50.852;5.676;2023-02-15T10:10:47;13.80;99.90
24470;DHT22;12635;50.852;5.676;2023-02-15T10:13:19;14.10;99.90
24470;DHT22;12635;50.852;5.676;2023-02-15T10:15:58;14.60;99.90
24470;DHT22;12635;50.852;5.676;2023-02-15T10:18:38;15.70;99.90
24470;DHT22;12635;50.852;5.676;2023-02-15T10:21:11;15.10;99.90
24470;DHT22;12635;50.852;5.676;2023-02-15T10:23:49;15.50;99.90
24470;DHT22;12635;50.852;5.676;2023-02-15T10:26:18;16.30;99.90
24470;DHT22;12635;50.852;5.676;2023-02-15T10:28:48;16.40;99.90
24470;DHT22;12635;50.852;5.676;2023-02-15T10:31:25;16.50;99.90
24470;DHT22;12635;50.852;5.676;2023-02-15T10:33:58;15.80;99.90
24470;DHT22;12635;50.852;5.676;2023-02-15T10:36:32;15.70;99.90
24470;DHT22;12635;50.852;5.676;2023-02-15T10:39:04;16.80;99.90
24470;DHT22;12635;50.852;5.676;2023-02-15T10:41:35;16.70;99.90
24470;DHT22;12635;50.852;5.676;2023-02-15T10:44:14;15.70;99.90
24470;DHT22;12635;50.852;5.676;2023-02-15T10:46:53;15.30;99.90
24470;DHT22;12635;50.852;5.676;2023-02-15T10:49:29;15.10;99.90
24470;DHT22;12635;50.852;5.676;2023-02-15T10:52:09;14.10;99.90
24470;DHT22;12635;50.852;5.676;2023-02-15T10:54:40;14.80;99.90
24470;DHT22;12635;50.852;5.676;2023-02-15T10:57:13;14.80;99.90
24470;DHT22;12635;50.852;5.676;2023-02-15T10:59:50;14.50;99.90
24470;DHT22;12635;50.852;5.676;2023-02-15T11:02:25;14.70;99.90
24470;DHT22;12635;50.852;5.676;2023-02-15T11:05:01;14.20;99.90
24470;DHT22;12635;50.852;5.676;2023-02-15T11:07:30;13.80;99.90
24470;DHT22;12635;50.852;5.676;2023-02-15T11:10:00;13.50;99.90
24470;DHT22;12635;50.852;5.676;2023-02-15T11:12:28;13.80;99.90
24470;DHT22;12635;50.852;5.676;2023-02-15T11:14:57;14.00;99.90
24470;DHT22;12635;50.852;5.676;2023-02-15T11:17:25;14.10;99.90
24470;DHT22;12635;50.852;5.676;2023-02-15T11:19:55;14.10;99.90
24470;DHT22;12635;50.852;5.676;2023-02-15T11:22:24;14.00;99.90
24470;DHT22;12635;50.852;5.676;2023-02-15T11:24:52;13.90;99.90
24470;DHT22;12635;50.852;5.676;2023-02-15T11:27:20;13.90;99.90
24470;DHT22;12635;50.852;5.676;2023-02-15T11:29:52;14.00;99.90
24470;DHT22;12635;50.852;5.676;2023-02-15T11:32:21;13.50;99.90
24470;DHT22;12635;50.852;5.676;2023-02-15T11:34:50;13.60;99.90
24470;DHT22;12635;50.852;5.676;2023-02-15T11:37:20;13.70;99.90
24470;DHT22;12635;50.852;5.676;2023-02-15T11:39:52;13.70;99.90
24470;DHT22;12635;50.852;5.676;2023-02-15T11:42:20;14.00;99.90
24470;DHT22;12635;50.852;5.676;2023-02-15T11:44:51;14.00;99.90
24470;DHT22;12635;50.852;5.676;2023-02-15T11:47:19;14.00;99.90
24470;DHT22;12635;50.852;5.676;2023-02-15T11:49:46;14.40;99.90
24470;DHT22;12635;50.852;5.676;2023-02-15T11:52:14;14.20;99.90
24470;DHT22;12635;50.852;5.676;2023-02-15T11:54:42;14.60;99.90
24470;DHT22;12635;50.852;5.676;2023-02-15T11:57:13;15.00;99.90
24470;DHT22;12635;50.852;5.676;2023-02-15T11:59:42;15.30;99.90
24470;DHT22;12635;50.852;5.676;2023-02-15T12:02:14;15.30;99.90
24470;DHT22;12635;50.852;5.676;2023-02-15T12:04:43;15.30;99.90
24470;DHT22;12635;50.852;5.676;2023-02-15T12:07:13;15.40;99.90
24470;DHT22;12635;50.852;5.676;2023-02-15T12:09:45;15.20;99.90
24470;DHT22;12635;50.852;5.676;2023-02-15T12:12:22;15.40;99.90
24470;DHT22;12635;50.852;5.676;2023-02-15T12:14:50;15.20;99.90
24470;DHT22;12635;50.852;5.676;2023-02-15T12:17:17;14.90;99.90
24470;DHT22;12635;50.852;5.676;2023-02-15T12:19:44;15.10;99.90
24470;DHT22;12635;50.852;5.676;2023-02-15T12:22:20;14.80;99.90
24470;DHT22;12635;50.852;5.676;2023-02-15T12:24:49;15.10;99.90
24470;DHT22;12635;50.852;5.676;2023-02-15T12:27:17;15.00;99.90
24470;DHT22;12635;50.852;5.676;2023-02-15T12:29:46;15.30;99.90
24470;DHT22;12635;50.852;5.676;2023-02-15T12:32:16;14.90;99.90
24470;DHT22;12635;50.852;5.676;2023-02-15T12:34:44;15.00;99.90
24470;DHT22;12635;50.852;5.676;2023-02-15T12:37:15;14.70;99.90
24470;DHT22;12635;50.852;5.676;2023-02-15T12:39:53;14.80;99.90
24470;DHT22;12635;50.852;5.676;2023-02-15T12:42:21;14.80;99.90
24470;DHT22;12635;50.852;5.676;2023-02-15T12:44:54;14.60;99.90
24470;DHT22;12635;50.852;5.676;2023-02-15T12:47:21;14.90;99.90
24470;DHT22;12635;50.852;5.676;2023-02-15T12:50:03;15.00;99.90
24470;DHT22;12635;50.852;5.676;2023-02-15T12:52:30;15.50;99.90
24470;DHT22;12635;50.852;5.676;2023-02-15T12:55:05;15.30;99.90
24470;DHT22;12635;50.852;5.676;2023-02-15T12:57:36;15.50;99.90
24470;DHT22;12635;50.852;5.676;2023-02-15T13:00:05;15.70;99.90
24470;DHT22;12635;50.852;5.676;2023-02-15T13:02:36;15.30;99.90
24470;DHT22;12635;50.852;5.676;2023-02-15T13:05:04;15.30;99.90
24470;DHT22;12635;50.852;5.676;2023-02-15T13:07:34;15.30;99.90
24470;DHT22;12635;50.852;5.676;2023-02-15T13:10:01;15.60;99.90
24470;DHT22;12635;50.852;5.676;2023-02-15T13:12:28;15.70;99.90
24470;DHT22;12635;50.852;5.676;2023-02-15T13:14:57;15.80;99.90
24470;DHT22;12635;50.852;5.676;2023-02-15T13:17:29;16.20;99.90
24470;DHT22;12635;50.852;5.676;2023-02-15T13:19:58;16.00;99.90
24470;DHT22;12635;50.852;5.676;2023-02-15T13:22:25;15.90;99.90
24470;DHT22;12635;50.852;5.676;2023-02-15T13:24:55;15.80;99.90
24470;DHT22;12635;50.852;5.676;2023-02-15T13:27:23;15.60;99.90
24470;DHT22;12635;50.852;5.676;2023-02-15T13:29:52;15.40;99.90
24470;DHT22;12635;50.852;5.676;2023-02-15T13:32:25;15.00;99.90
24470;DHT22;12635;50.852;5.676;2023-02-15T13:34:56;14.90;99.90
24470;DHT22;12635;50.852;5.676;2023-02-15T13:37:33;14.70;99.90
24470;DHT22;12635;50.852;5.676;2023-02-15T13:40:02;14.70;99.90
24470;DHT22;12635;50.852;5.676;2023-02-15T13:42:35;14.70;99.90
24470;DHT22;12635;50.852;5.676;2023-02-15T13:45:08;14.80;99.90
24470;DHT22;12635;50.852;5.676;2023-02-15T13:47:40;15.20;99.90
24470;DHT22;12635;50.852;5.676;2023-02-15T13:50:16;15.20;99.90
24470;DHT22;12635;50.852;5.676;2023-02-15T13:52:47;15.30;99.90
24470;DHT22;12635;50.852;5.676;2023-02-15T13:55:26;15.30;99.90
24470;DHT22;12635;50.852;5.676;2023-02-15T13:57:58;15.10;99.90
24470;DHT22;12635;50.852;5.676;2023-02-15T14:00:30;15.10;99.90
24470;DHT22;12635;50.852;5.676;2023-02-15T14:03:05;15.20;99.90
24470;DHT22;12635;50.852;5.676;2023-02-15T14:05:47;15.20;99.90
24470;DHT22;12635;50.852;5.676;2023-02-15T14:08:18;15.00;99.90
24470;DHT22;12635;50.852;5.676;2023-02-15T14:10:50;14.90;99.90
24470;DHT22;12635;50.852;5.676;2023-02-15T14:13:33;15.00;99.90
24470;DHT22;12635;50.852;5.676;2023-02-15T14:16:04;15.50;99.90
24470;DHT22;12635;50.852;5.676;2023-02-15T14:18:34;15.60;99.90
24470;DHT22;12635;50.852;5.676;2023-02-15T14:21:06;15.40;99.90
24470;DHT22;12635;50.852;5.676;2023-02-15T14:23:42;15.10;99.90
24470;DHT22;12635;50.852;5.676;2023-02-15T14:26:12;14.90;99.90
24470;DHT22;12635;50.852;5.676;2023-02-15T14:28:43;14.80;99.90
24470;DHT22;12635;50.852;5.676;2023-02-15T14:31:12;14.80;99.90
24470;DHT22;12635;50.852;5.676;2023-02-15T14:33:40;14.80;99.90
24470;DHT22;12635;50.852;5.676;2023-02-15T14:36:10;14.50;99.90
24470;DHT22;12635;50.852;5.676;2023-02-15T14:38:43;14.40;99.90
24470;DHT22;12635;50.852;5.676;2023-02-15T14:41:12;14.50;99.90
24470;DHT22;12635;50.852;5.676;2023-02-15T14:43:44;14.50;99.90
24470;DHT22;12635;50.852;5.676;2023-02-15T14:46:15;14.40;99.90
24470;DHT22;12635;50.852;5.676;2023-02-15T14:48:44;14.30;99.90
24470;DHT22;12635;50.852;5.676;2023-02-15T14:53:56;14.40;99.90
24470;DHT22;12635;50.852;5.676;2023-02-15T14:56:23;14.40;99.90
24470;DHT22;12635;50.852;5.676;2023-02-15T14:58:54;14.20;99.90
24470;DHT22;12635;50.852;5.676;2023-02-15T15:01:25;14.10;99.90
24470;DHT22;12635;50.852;5.676;2023-02-15T15:03:53;14.10;99.90
24470;DHT22;12635;50.852;5.676;2023-02-15T15:06:23;14.10;99.90
24470;DHT22;12635;50.852;5.676;2023-02-15T15:08:52;14.10;99.90
24470;DHT22;12635;50.852;5.676;2023-02-15T15:11:40;14.00;99.90
24470;DHT22;12635;50.852;5.676;2023-02-15T15:14:07;13.90;99.90
24470;DHT22;12635;50.852;5.676;2023-02-15T15:22:06;13.70;99.90
24470;DHT22;12635;50.852;5.676;2023-02-15T15:24:47;13.60;99.90
24470;DHT22;12635;50.852;5.676;2023-02-15T15:30:01;13.50;99.90
24470;DHT22;12635;50.852;5.676;2023-02-15T15:32:28;13.40;99.90
24470;DHT22;12635;50.852;5.676;2023-02-15T15:35:03;13.40;99.90
24470;DHT22;12635;50.852;5.676;2023-02-15T15:37:52;13.30;99.90
24470;DHT22;12635;50.852;5.676;2023-02-15T15:46:14;12.90;99.90
24470;DHT22;12635;50.852;5.676;2023-02-15T15:48:44;12.90;99.90
24470;DHT22;12635;50.852;5.676;2023-02-15T15:51:12;12.70;99.90
24470;DHT22;12635;50.852;5.676;2023-02-15T15:53:41;12.60;99.90
24470;DHT22;12635;50.852;5.676;2023-02-15T15:56:12;12.60;99.90
24470;DHT22;12635;50.852;5.676;2023-02-15T15:58:41;12.50;99.90
24470;DHT22;12635;50.852;5.676;2023-02-15T16:01:10;12.50;99.90
24470;DHT22;12635;50.852;5.676;2023-02-15T16:03:41;12.50;99.90
24470;DHT22;12635;50.852;5.676;2023-02-15T16:06:25;12.30;99.90
24470;DHT22;12635;50.852;5.676;2023-02-15T16:08:52;12.20;99.90
24470;DHT22;12635;50.852;5.676;2023-02-15T16:11:21;12.10;99.90
24470;DHT22;12635;50.852;5.676;2023-02-15T16:13:49;12.00;99.90
24470;DHT22;12635;50.852;5.676;2023-02-15T16:16:19;11.90;99.90
24470;DHT22;12635;50.852;5.676;2023-02-15T16:18:48;11.90;99.90